Time;durP1;ratioP1;P1;durP2;ratioP2;P2;SDS_P1;SDS_P2;PMS_P1;PMS_P2;Temp;Humidity;BMP_temperature;BMP_pressure;BME280_temperature;BME280_humidity;BME280_pressure;Samples;Min_cycle;Max_cycle;Signal;HPM_P1;HPM_P2
2024/03/25 00:02:01;;;;;;;4.20;1.50;;;;;;;-141.50;100.00;63355.56;4909488;29;20043;-83
2024/03/25 00:04:27;;;;;;;6.40;1.88;;;;;;;-141.50;100.00;63355.56;4917282;29;20531;-84
2024/03/25 00:06:53;;;;;;;3.28;1.75;;;;;;;-141.50;100.00;63355.56;4916931;29;20123;-83
2024/03/25 00:09:20;;;;;;;4.95;2.20;;;;;;;-141.50;100.00;63355.56;4913148;29;20054;-86
2024/03/25 00:11:46;;;;;;;2.83;1.52;;;;;;;-141.50;100.00;63355.56;4912140;29;20050;-85
2024/03/25 00:14:12;;;;;;;4.38;1.92;;;;;;;-141.50;100.00;63355.56;4911497;29;20052;-85
2024/03/25 00:16:38;;;;;;;5.47;1.70;;;;;;;-141.50;100.00;63355.56;4908676;29;20122;-86
2024/03/25 00:19:04;;;;;;;4.55;1.80;;;;;;;-141.50;100.00;63355.56;4915869;29;20059;-85
2024/03/25 00:21:32;;;;;;;5.20;1.80;;;;;;;-141.50;100.00;63355.56;4933213;29;20054;-83
2024/03/25 00:24:00;;;;;;;3.40;1.80;;;;;;;-141.50;100.00;63355.56;4902572;29;20071;-85
2024/03/25 00:26:26;;;;;;;4.45;1.77;;;;;;;-141.50;100.00;63355.56;4916671;29;20071;-85
2024/03/25 00:28:52;;;;;;;5.25;2.05;;;;;;;-141.50;100.00;63355.56;4919484;29;20048;-85
2024/03/25 00:31:18;;;;;;;3.53;1.60;;;;;;;-141.50;100.00;63355.56;4917705;29;20094;-85
2024/03/25 00:33:44;;;;;;;7.32;1.70;;;;;;;-141.50;100.00;63355.56;4918516;29;20054;-84
2024/03/25 00:36:10;;;;;;;4.95;1.80;;;;;;;-141.50;100.00;63355.56;4915626;29;20063;-83
2024/03/25 00:38:36;;;;;;;3.45;1.88;;;;;;;-141.50;100.00;63355.56;4917832;29;20055;-84
2024/03/25 00:41:02;;;;;;;4.05;1.85;;;;;;;-141.50;100.00;63355.56;4928373;29;20047;-87
2024/03/25 00:43:28;;;;;;;6.90;2.17;;;;;;;-141.50;100.00;63355.56;4910299;29;20604;-85
2024/03/25 00:45:54;;;;;;;6.18;2.10;;;;;;;-141.50;100.00;63355.56;4934397;29;20044;-82
2024/03/25 00:48:20;;;;;;;2.92;1.75;;;;;;;-141.50;100.00;63355.56;4944761;29;20504;-84
2024/03/25 00:50:46;;;;;;;8.10;2.13;;;;;;;-141.50;100.00;63355.56;4915016;29;20048;-85
2024/03/25 00:53:13;;;;;;;6.25;1.80;;;;;;;-141.50;100.00;63355.56;4909808;29;20079;-83
2024/03/25 00:55:39;;;;;;;5.85;2.00;;;;;;;-141.50;100.00;63355.56;4913981;29;20120;-85
2024/03/25 00:58:05;;;;;;;8.10;3.00;;;;;;;-141.50;100.00;63355.56;4893306;29;20052;-86
2024/03/25 01:00:31;;;;;;;4.82;2.15;;;;;;;-141.50;100.00;63355.56;4915948;29;20095;-85
2024/03/25 01:02:57;;;;;;;5.10;2.05;;;;;;;-141.50;100.00;63355.56;4913299;29;20515;-87
2024/03/25 01:05:23;;;;;;;5.78;2.30;;;;;;;-141.50;100.00;63355.56;4915487;29;20055;-85
2024/03/25 01:07:49;;;;;;;3.70;1.95;;;;;;;-141.50;100.00;63355.56;4913094;29;20074;-86
2024/03/25 01:10:16;;;;;;;4.55;1.95;;;;;;;-141.50;100.00;63355.56;4908757;29;20044;-85
2024/03/25 01:12:42;;;;;;;8.38;2.08;;;;;;;-141.50;100.00;63355.56;4912552;29;20052;-85
2024/03/25 01:15:10;;;;;;;4.93;2.00;;;;;;;-141.50;100.00;63355.56;4913950;29;20095;-85
2024/03/25 01:17:36;;;;;;;5.75;1.75;;;;;;;-141.50;100.00;63355.56;4905388;29;20059;-85
2024/03/25 01:20:04;;;;;;;4.45;1.80;;;;;;;-141.50;100.00;63355.56;4914916;29;20079;-84
2024/03/25 01:22:31;;;;;;;6.25;1.75;;;;;;;-141.50;100.00;63355.56;4913361;29;20642;-84
2024/03/25 01:24:57;;;;;;;3.95;1.70;;;;;;;-141.50;100.00;63355.56;4921027;29;20527;-83
2024/03/25 01:27:23;;;;;;;7.45;1.80;;;;;;;-141.50;100.00;63355.56;4897362;29;20060;-86
2024/03/25 01:29:49;;;;;;;6.00;1.80;;;;;;;-141.50;100.00;63355.56;4912992;29;20143;-84
2024/03/25 01:32:15;;;;;;;5.05;1.45;;;;;;;-141.50;100.00;63355.56;4922040;28;20056;-85
2024/03/25 01:34:41;;;;;;;4.20;1.67;;;;;;;-141.50;100.00;63355.56;4912236;29;20409;-86
2024/03/25 01:37:07;;;;;;;5.95;1.42;;;;;;;-141.50;100.00;63355.56;4918614;29;20051;-88
2024/03/25 01:39:33;;;;;;;5.05;1.73;;;;;;;-141.50;100.00;63355.56;4909636;29;20048;-89
2024/03/25 01:41:59;;;;;;;4.63;1.52;;;;;;;-141.50;100.00;63355.56;4910246;29;20063;-84
2024/03/25 01:44:25;;;;;;;4.15;1.80;;;;;;;-141.50;100.00;63355.56;4931077;28;20052;-85
2024/03/25 01:46:52;;;;;;;4.63;1.58;;;;;;;-141.50;100.00;63355.56;4908583;28;20521;-87
2024/03/25 01:49:19;;;;;;;4.95;1.33;;;;;;;-141.50;100.00;63355.56;4925577;28;20059;-85
2024/03/25 01:51:46;;;;;;;4.82;1.27;;;;;;;-141.50;100.00;63355.56;4912573;28;20135;-90
2024/03/25 01:54:16;;;;;;;3.45;1.50;;;;;;;-141.50;100.00;63355.56;4914174;29;20280;-88
2024/03/25 01:56:43;;;;;;;4.93;1.60;;;;;;;-141.50;100.00;63355.56;4910714;29;20381;-86
2024/03/25 01:59:10;;;;;;;5.63;1.88;;;;;;;-141.50;100.00;63355.56;4916367;29;20103;-85
2024/03/25 02:01:36;;;;;;;2.72;1.20;;;;;;;-141.50;100.00;63355.56;4921129;29;20135;-85
2024/03/25 02:04:02;;;;;;;3.88;1.38;;;;;;;-141.50;100.00;63355.56;4918226;29;20130;-87
2024/03/25 02:06:30;;;;;;;5.15;1.40;;;;;;;-141.50;100.00;63355.56;4913564;29;20142;-84
2024/03/25 02:08:58;;;;;;;6.13;1.88;;;;;;;-141.50;100.00;63355.56;4901436;29;20052;-84
2024/03/25 02:11:24;;;;;;;7.88;1.92;;;;;;;-141.50;100.00;63355.56;4906801;29;20047;-86
2024/03/25 02:13:51;;;;;;;3.97;1.60;;;;;;;-141.50;100.00;63355.56;4906958;29;20135;-85
2024/03/25 02:16:17;;;;;;;6.25;1.70;;;;;;;-141.50;100.00;63355.56;4918522;29;20047;-86
2024/03/25 02:18:43;;;;;;;3.92;1.48;;;;;;;-141.50;100.00;63355.56;4914104;29;20052;-86
2024/03/25 02:21:10;;;;;;;2.97;1.33;;;;;;;-141.50;100.00;63355.56;4912467;29;20107;-87
2024/03/25 02:23:38;;;;;;;4.82;1.33;;;;;;;-141.50;100.00;63355.56;4906875;29;20150;-88
2024/03/25 02:26:04;;;;;;;3.10;1.50;;;;;;;-141.50;100.00;63355.56;4904847;29;20042;-87
2024/03/25 02:28:38;;;;;;;4.53;1.70;;;;;;;-141.50;100.00;63355.56;4924221;29;20043;-86
2024/03/25 02:31:04;;;;;;;2.53;1.20;;;;;;;-141.50;100.00;63355.56;4914049;29;20074;-85
2024/03/25 02:33:30;;;;;;;3.25;1.50;;;;;;;-141.50;100.00;63355.56;4908861;29;20135;-86
2024/03/25 02:35:56;;;;;;;3.53;1.60;;;;;;;-141.50;100.00;63355.56;4912881;29;20535;-86
2024/03/25 02:38:22;;;;;;;7.07;1.65;;;;;;;-141.50;100.00;63355.56;4912494;29;20079;-87
2024/03/25 02:40:49;;;;;;;4.70;1.60;;;;;;;-141.50;100.00;63355.56;4907056;29;20055;-86
2024/03/25 02:43:16;;;;;;;4.22;1.27;;;;;;;-141.50;100.00;63355.56;4911590;29;20064;-89
2024/03/25 02:45:42;;;;;;;3.58;1.40;;;;;;;-141.50;100.00;63355.56;4917423;29;20058;-86
2024/03/25 02:48:08;;;;;;;5.18;1.67;;;;;;;-141.50;100.00;63355.56;4916965;29;20071;-86
2024/03/25 02:50:34;;;;;;;8.68;1.48;;;;;;;-141.50;100.00;63355.56;4911451;29;20456;-82
2024/03/25 02:53:00;;;;;;;4.35;1.55;;;;;;;-141.50;100.00;63355.56;4909420;29;20059;-82
2024/03/25 02:55:26;;;;;;;6.45;1.40;;;;;;;-141.50;100.00;63355.56;4910722;29;20632;-88
2024/03/25 02:57:51;;;;;;;7.07;1.67;;;;;;;-141.50;100.00;63355.56;4909070;29;21382;-88
2024/03/25 03:00:17;;;;;;;2.30;1.40;;;;;;;-141.50;100.00;63355.56;4912781;29;20052;-89
2024/03/25 03:02:44;;;;;;;2.97;1.35;;;;;;;-141.50;100.00;63355.56;4916223;29;20051;-86
2024/03/25 03:05:10;;;;;;;2.88;1.17;;;;;;;-141.50;100.00;63355.56;4902707;29;20131;-83
2024/03/25 03:07:36;;;;;;;3.95;1.50;;;;;;;-141.50;100.00;63355.56;4912151;29;20048;-84
2024/03/25 03:10:02;;;;;;;4.90;1.48;;;;;;;-141.50;100.00;63355.56;4908597;29;20093;-86
2024/03/25 03:12:28;;;;;;;5.22;1.70;;;;;;;-141.50;100.00;63355.56;4915341;29;20051;-87
2024/03/25 03:14:54;;;;;;;6.10;1.40;;;;;;;-141.50;100.00;63355.56;4909850;29;20095;-86
2024/03/25 03:17:20;;;;;;;4.45;1.23;;;;;;;-141.50;100.00;63355.56;4911583;29;20590;-85
2024/03/25 03:19:46;;;;;;;6.63;1.48;;;;;;;-141.50;100.00;63355.56;4911795;29;20048;-85
2024/03/25 03:22:12;;;;;;;5.70;1.48;;;;;;;-141.50;100.00;63355.56;4921808;29;20075;-87
2024/03/25 03:24:37;;;;;;;5.68;1.58;;;;;;;-141.50;100.00;63355.56;4915474;29;20079;-86
2024/03/25 03:27:04;;;;;;;4.50;1.50;;;;;;;-141.50;100.00;63355.56;4916209;29;20047;-89
2024/03/25 03:29:30;;;;;;;5.97;1.70;;;;;;;-141.50;100.00;63355.56;4904621;29;20102;-88
2024/03/25 03:31:55;;;;;;;2.00;1.08;;;;;;;-141.50;100.00;63355.56;4917177;29;20056;-87
2024/03/25 03:34:21;;;;;;;5.63;1.92;;;;;;;-141.50;100.00;63355.56;4915895;29;20051;-87
2024/03/25 03:36:47;;;;;;;6.63;2.30;;;;;;;-141.50;100.00;63355.56;4915387;29;20450;-84
2024/03/25 03:39:15;;;;;;;4.43;1.75;;;;;;;-141.50;100.00;63355.56;4917979;29;20050;-83
2024/03/25 03:41:41;;;;;;;5.15;1.65;;;;;;;-141.50;100.00;63355.56;4913575;29;20643;-85
2024/03/25 03:44:07;;;;;;;5.95;1.75;;;;;;;-141.50;100.00;63355.56;4910641;29;20077;-85
2024/03/25 03:46:33;;;;;;;6.53;1.70;;;;;;;-141.50;100.00;63355.56;4902393;29;20123;-85
2024/03/25 03:48:59;;;;;;;5.70;1.67;;;;;;;-141.50;100.00;63355.56;4907941;29;20946;-85
2024/03/25 03:51:25;;;;;;;5.70;1.90;;;;;;;-141.50;100.00;63355.56;4920226;29;20057;-84
2024/03/25 03:53:51;;;;;;;7.68;1.90;;;;;;;-141.50;100.00;63355.56;4915238;29;20056;-85
2024/03/25 03:56:17;;;;;;;5.00;2.20;;;;;;;-141.50;100.00;63355.56;4915546;29;20071;-88
2024/03/25 03:58:43;;;;;;;7.18;2.30;;;;;;;-141.50;100.00;63355.56;4914229;29;20055;-86
2024/03/25 04:01:18;;;;;;;5.25;1.80;;;;;;;-141.50;100.00;63355.56;4905587;29;20067;-84
2024/03/25 04:03:47;;;;;;;;;;;;;;;-141.50;100.00;63355.56;4915816;29;20715;-87
2024/03/25 04:06:13;;;;;;;7.72;2.13;;;;;;;-141.50;100.00;63355.56;4918463;29;19923;-85
2024/03/25 04:08:40;;;;;;;7.00;2.33;;;;;;;-141.50;100.00;63355.56;4917410;28;20111;-83
2024/03/25 04:11:06;;;;;;;8.20;2.15;;;;;;;-141.50;100.00;63355.56;4933581;28;20466;-86
2024/03/25 04:13:36;;;;;;;6.22;1.90;;;;;;;-141.50;100.00;63355.56;4906788;29;20568;-87
2024/03/25 04:16:04;;;;;;;7.53;2.13;;;;;;;-141.50;100.00;63355.56;4918767;29;20106;-86
2024/03/25 04:18:31;;;;;;;7.97;1.85;;;;;;;-141.50;100.00;63355.56;4915192;29;20168;-86
2024/03/25 04:20:57;;;;;;;5.18;2.08;;;;;;;-141.50;100.00;63355.56;4910190;29;20520;-87
2024/03/25 04:23:23;;;;;;;7.97;2.03;;;;;;;-141.50;100.00;63355.56;4920604;29;20066;-84
2024/03/25 04:25:50;;;;;;;7.90;2.00;;;;;;;-141.50;100.00;63355.56;4906317;29;20102;-88
2024/03/25 04:28:16;;;;;;;9.27;2.38;;;;;;;-141.50;100.00;63355.56;4919689;29;20392;-86
2024/03/25 04:30:42;;;;;;;14.68;2.58;;;;;;;-141.50;100.00;63355.56;4917257;29;20067;-87
2024/03/25 04:33:08;;;;;;;8.30;2.15;;;;;;;-141.50;100.00;63355.56;4918110;29;20047;-86
2024/03/25 04:35:34;;;;;;;8.88;2.22;;;;;;;-141.50;100.00;63355.56;4911875;29;20043;-85
2024/03/25 04:38:00;;;;;;;11.90;2.17;;;;;;;-141.50;100.00;63355.56;4909549;29;20460;-85
2024/03/25 04:40:26;;;;;;;4.88;2.05;;;;;;;-141.50;100.00;63355.56;4896862;29;20044;-84
2024/03/25 04:42:52;;;;;;;7.10;1.80;;;;;;;-141.50;100.00;63355.56;4914770;29;20182;-85
2024/03/25 04:45:18;;;;;;;4.95;1.70;;;;;;;-141.50;100.00;63355.56;4915942;29;20048;-84
2024/03/25 04:47:44;;;;;;;7.65;2.10;;;;;;;-141.50;100.00;63355.56;4910894;29;20094;-86
2024/03/25 04:50:10;;;;;;;11.30;2.25;;;;;;;-141.50;100.00;63355.56;4905235;29;20073;-83
2024/03/25 04:52:36;;;;;;;5.55;1.98;;;;;;;-141.50;100.00;63355.56;4916547;29;20054;-85
2024/03/25 04:55:02;;;;;;;7.70;2.28;;;;;;;-141.50;100.00;63355.56;4915352;29;20500;-84
2024/03/25 04:57:28;;;;;;;8.75;2.40;;;;;;;-141.50;100.00;63355.56;4910031;29;20536;-83
2024/03/25 04:59:54;;;;;;;8.73;2.25;;;;;;;-141.50;100.00;63355.56;4914873;29;20061;-83
2024/03/25 05:02:20;;;;;;;9.13;2.47;;;;;;;-141.50;100.00;63355.56;4910113;29;20075;-84
2024/03/25 05:04:46;;;;;;;12.20;2.13;;;;;;;-141.50;100.00;63355.56;4914873;29;20571;-84
2024/03/25 05:07:12;;;;;;;7.32;1.85;;;;;;;-141.50;100.00;63355.56;4915947;29;20059;-84
2024/03/25 05:09:37;;;;;;;11.40;2.25;;;;;;;-141.50;100.00;63355.56;4921020;29;20505;-86
2024/03/25 05:12:03;;;;;;;13.73;2.22;;;;;;;-141.50;100.00;63355.56;4907359;29;20087;-86
2024/03/25 05:14:29;;;;;;;9.18;1.95;;;;;;;-141.50;100.00;63355.56;4919357;29;20119;-84
2024/03/25 05:16:56;;;;;;;6.57;2.17;;;;;;;-141.50;100.00;63355.56;4918020;29;20531;-83
2024/03/25 05:19:22;;;;;;;9.07;2.38;;;;;;;-141.50;100.00;63355.56;4919770;29;20621;-85
2024/03/25 05:21:48;;;;;;;6.20;1.75;;;;;;;-141.50;100.00;63355.56;4899787;29;20293;-86
2024/03/25 05:24:14;;;;;;;9.30;2.20;;;;;;;-141.50;100.00;63355.56;4921408;29;20323;-84
2024/03/25 05:26:39;;;;;;;5.30;1.95;;;;;;;-141.50;100.00;63355.56;4917600;29;20394;-84
2024/03/25 05:29:07;;;;;;;6.03;2.05;;;;;;;-141.50;100.00;63355.56;4919593;29;20063;-83
2024/03/25 05:31:32;;;;;;;6.55;1.83;;;;;;;-141.50;100.00;63355.56;4906479;29;20151;-83
2024/03/25 05:34:01;;;;;;;8.55;1.77;;;;;;;-141.50;100.00;63355.56;4913915;28;20067;-85
2024/03/25 05:36:27;;;;;;;7.20;1.85;;;;;;;-141.50;100.00;63355.56;4905193;29;20675;-83
2024/03/25 05:38:53;;;;;;;6.25;1.70;;;;;;;-141.50;100.00;63355.56;4920809;29;20047;-80
2024/03/25 05:41:18;;;;;;;9.05;1.92;;;;;;;-141.50;100.00;63355.56;4921484;29;20067;-81
2024/03/25 05:43:44;;;;;;;6.38;1.83;;;;;;;-141.50;100.00;63355.56;4931671;28;20166;-83
2024/03/25 05:46:10;;;;;;;7.05;2.10;;;;;;;-141.50;100.00;63355.56;4912608;29;20048;-83
2024/03/25 05:48:36;;;;;;;7.15;2.08;;;;;;;-141.50;100.00;63355.56;4919035;29;20059;-82
2024/03/25 05:51:07;;;;;;;6.03;1.98;;;;;;;-141.50;100.00;63355.56;4910346;29;20122;-84
2024/03/25 05:53:33;;;;;;;9.07;1.88;;;;;;;-141.50;100.00;63355.56;4922912;29;20534;-85
2024/03/25 05:55:59;;;;;;;8.15;2.28;;;;;;;-141.50;100.00;63355.56;4911839;29;20079;-86
2024/03/25 05:58:26;;;;;;;5.95;1.92;;;;;;;-141.50;100.00;63355.56;4919779;29;20051;-85
2024/03/25 06:00:55;;;;;;;4.03;2.00;;;;;;;-141.50;100.00;63355.56;4916982;29;20051;-85
2024/03/25 06:03:21;;;;;;;10.30;1.90;;;;;;;-141.50;100.00;63355.56;4912203;29;20048;-86
2024/03/25 06:05:48;;;;;;;7.93;2.05;;;;;;;-141.50;100.00;63355.56;4919131;28;20056;-83
2024/03/25 06:08:25;;;;;;;8.93;2.20;;;;;;;-141.50;100.00;63355.56;4927211;29;20047;-83
2024/03/25 06:10:52;;;;;;;9.90;2.00;;;;;;;-141.50;100.00;63355.56;4910932;29;20481;-82
2024/03/25 06:13:19;;;;;;;8.73;2.40;;;;;;;-141.50;100.00;63355.56;4910996;29;20048;-83
2024/03/25 06:15:45;;;;;;;7.28;2.13;;;;;;;-141.50;100.00;63355.56;4915844;29;20059;-84
2024/03/25 06:18:11;;;;;;;6.15;1.80;;;;;;;-141.50;100.00;63355.56;4891163;29;20560;-84
2024/03/25 06:20:37;;;;;;;9.45;3.10;;;;;;;-141.50;100.00;63355.56;4905991;29;20060;-84
2024/03/25 06:23:04;;;;;;;10.63;2.67;;;;;;;-141.50;100.00;63355.56;4909814;29;20072;-87
2024/03/25 06:25:30;;;;;;;6.97;2.30;;;;;;;-141.50;100.00;63355.56;4910677;29;20048;-85
2024/03/25 06:27:56;;;;;;;9.82;2.42;;;;;;;-141.50;100.00;63355.56;4910650;29;20159;-85
2024/03/25 06:35:52;;;;;;;14.50;3.65;;;;;;;-141.50;100.00;63355.56;4931521;29;20119;-85
2024/03/25 06:38:18;;;;;;;8.50;2.70;;;;;;;-141.50;100.00;63355.56;4926776;29;20056;-83
2024/03/25 06:40:45;;;;;;;8.52;2.80;;;;;;;-141.50;100.00;63355.56;4915014;29;20139;-86
2024/03/25 06:43:11;;;;;;;7.30;2.65;;;;;;;-141.50;100.00;63355.56;4895973;29;20064;-84
2024/03/25 06:45:38;;;;;;;12.30;2.85;;;;;;;-141.50;100.00;63355.56;4909002;29;20401;-85
2024/03/25 06:48:04;;;;;;;6.80;2.47;;;;;;;-141.50;100.00;63355.56;4911285;29;20055;-86
2024/03/25 06:50:31;;;;;;;7.00;2.45;;;;;;;-141.50;100.00;63355.56;4900771;29;20575;-87
2024/03/25 06:52:57;;;;;;;6.07;2.65;;;;;;;-141.50;100.00;63355.56;4904182;29;20075;-87
2024/03/25 06:55:27;;;;;;;7.80;2.47;;;;;;;-141.50;100.00;63355.56;4909764;29;20055;-86
2024/03/25 06:57:54;;;;;;;7.07;2.22;;;;;;;-141.50;100.00;63355.56;4911112;28;20411;-86
2024/03/25 07:00:22;;;;;;;8.25;2.33;;;;;;;-141.50;100.00;63355.56;4911193;29;20143;-85
2024/03/25 07:02:48;;;;;;;10.13;2.03;;;;;;;-141.50;100.00;63355.56;4915168;29;20139;-86
2024/03/25 07:05:14;;;;;;;6.30;2.25;;;;;;;-141.50;100.00;63355.56;4916864;29;20066;-85
2024/03/25 07:07:40;;;;;;;3.60;1.95;;;;;;;-141.50;100.00;63355.56;4916781;29;20055;-86
2024/03/25 07:10:07;;;;;;;6.43;1.90;;;;;;;-141.50;100.00;63355.56;4917235;29;20043;-85
2024/03/25 07:12:33;;;;;;;7.90;2.25;;;;;;;-141.50;100.00;63355.56;4930372;29;20048;-84
2024/03/25 07:14:58;;;;;;;6.60;2.00;;;;;;;-141.50;100.00;63355.56;4915031;29;20154;-84
2024/03/25 07:17:25;;;;;;;6.32;2.00;;;;;;;-141.50;100.00;63355.56;4914414;29;20134;-84
2024/03/25 07:19:52;;;;;;;7.15;1.83;;;;;;;-141.50;100.00;63355.56;4914982;29;20097;-85
2024/03/25 07:22:18;;;;;;;9.57;2.30;;;;;;;-141.50;100.00;63355.56;4905156;29;20554;-84
2024/03/25 07:24:44;;;;;;;6.78;2.05;;;;;;;-141.50;100.00;63355.56;4907685;29;20127;-85
2024/03/25 07:27:12;;;;;;;4.50;1.67;;;;;;;-141.50;100.00;63355.56;4916017;29;20546;-85
2024/03/25 07:29:38;;;;;;;4.53;2.15;;;;;;;-141.50;100.00;63355.56;4875787;28;20087;-87
2024/03/25 07:32:04;;;;;;;9.13;2.70;;;;;;;-141.50;100.00;63355.56;4915898;29;20126;-86
2024/03/25 07:34:30;;;;;;;10.23;2.22;;;;;;;-141.50;100.00;63355.56;4908744;29;20046;-85
2024/03/25 07:36:56;;;;;;;5.38;2.28;;;;;;;-141.50;100.00;63355.56;4914742;29;20585;-85
2024/03/25 07:39:24;;;;;;;10.10;2.40;;;;;;;-141.50;100.00;63355.56;4916107;29;20067;-86
2024/03/25 07:41:50;;;;;;;6.15;2.42;;;;;;;-141.50;100.00;63355.56;4930442;28;20249;-85
2024/03/25 07:44:16;;;;;;;8.68;2.10;;;;;;;-141.50;100.00;63355.56;4918800;29;20397;-86
2024/03/25 07:46:42;;;;;;;10.07;2.80;;;;;;;-141.50;100.00;63355.56;4925670;29;20134;-84
2024/03/25 07:49:08;;;;;;;12.05;2.00;;;;;;;-141.50;100.00;63355.56;4924300;29;20055;-85
2024/03/25 07:51:35;;;;;;;5.57;2.10;;;;;;;-141.50;100.00;63355.56;4912860;29;20052;-86
2024/03/25 07:54:03;;;;;;;7.00;2.20;;;;;;;-141.50;100.00;63355.56;4912104;29;20036;-84
2024/03/25 07:56:30;;;;;;;6.25;2.40;;;;;;;-141.50;100.00;63355.56;4914739;29;20142;-85
2024/03/25 07:58:56;;;;;;;12.57;2.58;;;;;;;-141.50;100.00;63355.56;4916305;29;20059;-84
2024/03/25 08:01:22;;;;;;;7.68;2.47;;;;;;;-141.50;100.00;63355.56;4917213;29;20041;-86
2024/03/25 08:03:48;;;;;;;6.28;1.88;;;;;;;-141.50;100.00;63355.56;4915995;29;20580;-84
2024/03/25 08:06:13;;;;;;;9.48;2.00;;;;;;;-141.50;100.00;63355.56;4916893;29;20048;-84
2024/03/25 08:08:39;;;;;;;6.82;2.30;;;;;;;-141.50;100.00;63355.56;4906943;29;20071;-84
2024/03/25 08:11:05;;;;;;;6.80;1.90;;;;;;;-141.50;100.00;63355.56;4931812;29;20056;-85
2024/03/25 08:13:31;;;;;;;6.55;2.15;;;;;;;-141.50;100.00;63355.56;4897724;29;20043;-85
2024/03/25 08:15:57;;;;;;;5.90;1.83;;;;;;;-141.50;100.00;63355.56;4903510;29;20618;-86
2024/03/25 08:18:23;;;;;;;6.88;1.73;;;;;;;-141.50;100.00;63355.56;4908868;29;20056;-86
2024/03/25 08:20:49;;;;;;;6.35;1.63;;;;;;;-141.50;100.00;63355.56;4912265;29;20079;-86
2024/03/25 08:23:15;;;;;;;4.28;1.67;;;;;;;-141.50;100.00;63355.56;4908578;29;20448;-86
2024/03/25 08:25:41;;;;;;;9.05;2.00;;;;;;;-141.50;100.00;63355.56;4909342;29;20055;-85
2024/03/25 08:28:07;;;;;;;6.78;1.90;;;;;;;-141.50;100.00;63355.56;4908350;29;20038;-85
2024/03/25 08:30:33;;;;;;;8.85;1.88;;;;;;;-141.50;100.00;63355.56;4932598;29;20059;-86
2024/03/25 08:32:59;;;;;;;3.55;1.13;;;;;;;-141.50;100.00;63355.56;4905374;29;20063;-86
2024/03/25 08:35:25;;;;;;;4.18;1.25;;;;;;;-141.50;100.00;63355.56;4928359;29;20067;-85
2024/03/25 08:37:59;;;;;;;4.93;1.38;;;;;;;-141.50;100.00;63355.56;4916383;28;20162;-85
2024/03/25 08:40:25;;;;;;;4.70;1.53;;;;;;;-141.50;100.00;63355.56;4915103;29;20415;-85
2024/03/25 08:42:51;;;;;;;5.75;1.40;;;;;;;-141.50;100.00;63355.56;4915307;29;20066;-86
2024/03/25 08:45:17;;;;;;;3.22;1.83;;;;;;;-141.50;100.00;63355.56;4914956;29;20071;-86
2024/03/25 08:47:43;;;;;;;5.57;1.73;;;;;;;-141.50;100.00;63355.56;4928613;29;20063;-85
2024/03/25 08:50:09;;;;;;;4.43;1.85;;;;;;;-141.50;100.00;63355.56;4898268;29;20520;-85
2024/03/25 08:52:35;;;;;;;6.15;2.13;;;;;;;-141.50;100.00;63355.56;4928654;29;20413;-86
2024/03/25 08:55:01;;;;;;;5.40;2.05;;;;;;;-141.50;100.00;63355.56;4909778;29;20044;-86
2024/03/25 08:57:27;;;;;;;5.30;2.30;;;;;;;-141.50;100.00;63355.56;4904534;29;20067;-85
2024/03/25 08:59:52;;;;;;;7.70;2.25;;;;;;;-141.50;100.00;63355.56;4911934;28;20138;-85
2024/03/25 09:02:18;;;;;;;7.90;1.95;;;;;;;-141.50;100.00;63355.56;4917841;29;20200;-85
2024/03/25 09:04:44;;;;;;;6.95;2.10;;;;;;;-141.50;100.00;63355.56;4910443;29;20136;-87
2024/03/25 09:07:10;;;;;;;4.93;1.60;;;;;;;-141.50;100.00;63355.56;4916966;29;20063;-86
2024/03/25 09:12:23;;;;;;;5.68;1.80;;;;;;;-141.50;100.00;63355.56;4904365;29;20063;-86
2024/03/25 09:14:51;;;;;;;6.63;1.60;;;;;;;-141.50;100.00;63355.56;4914034;29;20051;-87
2024/03/25 09:17:17;;;;;;;6.20;1.52;;;;;;;-141.50;100.00;63355.56;4916925;28;20046;-86
2024/03/25 09:19:43;;;;;;;4.95;1.50;;;;;;;-141.50;100.00;63355.56;4929203;28;20063;-86
2024/03/25 09:22:09;;;;;;;3.70;1.35;;;;;;;-141.50;100.00;63355.56;4906285;29;20512;-86
2024/03/25 09:24:35;;;;;;;5.22;1.48;;;;;;;-141.50;100.00;63355.56;4914108;29;20067;-86
2024/03/25 09:27:00;;;;;;;6.80;1.23;;;;;;;-141.50;100.00;63355.56;4897846;29;20044;-85
2024/03/25 09:29:26;;;;;;;5.40;1.67;;;;;;;-141.50;100.00;63355.56;4902815;29;20056;-86
2024/03/25 09:31:55;;;;;;;7.38;1.38;;;;;;;-141.50;100.00;63355.56;4903269;29;20066;-86
2024/03/25 09:34:21;;;;;;;4.82;1.13;;;;;;;-141.50;100.00;63355.56;4892130;29;20044;-86
2024/03/25 09:36:47;;;;;;;3.38;0.93;;;;;;;-141.50;100.00;63355.56;4905476;29;20052;-86
2024/03/25 09:39:13;;;;;;;4.10;1.17;;;;;;;-141.50;100.00;63355.56;4913359;29;20524;-85
2024/03/25 09:41:43;;;;;;;4.68;1.30;;;;;;;-141.50;100.00;63355.56;4913285;29;20055;-87
2024/03/25 09:44:10;;;;;;;4.35;1.30;;;;;;;-141.50;100.00;63355.56;4922841;28;20035;-86
2024/03/25 09:46:36;;;;;;;6.18;1.75;;;;;;;-141.50;100.00;63355.56;4915626;29;20471;-86
2024/03/25 09:49:05;;;;;;;7.22;1.77;;;;;;;-141.50;100.00;63355.56;4898817;29;20064;-83
2024/03/25 09:51:32;;;;;;;4.90;1.60;;;;;;;-141.50;100.00;63355.56;4880309;28;20568;-84
2024/03/25 09:53:58;;;;;;;5.70;1.52;;;;;;;-141.50;100.00;63355.56;4894529;29;20060;-85
2024/03/25 09:56:24;;;;;;;7.72;2.03;;;;;;;-141.50;100.00;63355.56;4904583;29;20473;-84
2024/03/25 09:58:50;;;;;;;7.75;1.80;;;;;;;-141.50;100.00;63355.56;4884604;29;20044;-84
2024/03/25 10:01:17;;;;;;;7.03;1.80;;;;;;;-141.50;100.00;63355.56;4896001;29;20059;-85
2024/03/25 10:03:43;;;;;;;8.93;2.00;;;;;;;-141.50;100.00;63355.56;4887732;29;20064;-86
2024/03/25 10:06:09;;;;;;;6.65;1.60;;;;;;;-141.50;100.00;63355.56;4910410;29;20048;-86
2024/03/25 10:08:38;;;;;;;6.95;1.77;;;;;;;-141.50;100.00;63355.56;4919192;29;20101;-87
2024/03/25 10:11:04;;;;;;;6.60;2.05;;;;;;;-141.50;100.00;63355.56;4920251;28;20059;-87
2024/03/25 10:13:29;;;;;;;5.68;1.67;;;;;;;-141.50;100.00;63355.56;4895336;29;20056;-87
2024/03/25 10:15:56;;;;;;;10.35;1.90;;;;;;;-141.50;100.00;63355.56;4899337;29;20063;-87
2024/03/25 10:18:24;;;;;;;6.93;2.20;;;;;;;-141.50;100.00;63355.56;4878295;29;20078;-86
2024/03/25 10:20:51;;;;;;;4.20;1.55;;;;;;;-141.50;100.00;63355.56;4909857;29;20052;-87
2024/03/25 10:23:20;;;;;;;5.38;1.52;;;;;;;-141.50;100.00;63355.56;4915158;29;20457;-85
2024/03/25 10:25:48;;;;;;;12.48;1.63;;;;;;;-141.50;100.00;63355.56;4931110;28;20138;-86
2024/03/25 10:28:14;;;;;;;9.07;1.58;;;;;;;-141.50;100.00;63355.56;4906177;29;20512;-86
2024/03/25 10:30:41;;;;;;;6.55;1.40;;;;;;;-141.50;100.00;63355.56;4913002;29;20064;-85
2024/03/25 10:33:08;;;;;;;7.70;1.60;;;;;;;-141.50;100.00;63355.56;4897711;29;20230;-86
2024/03/25 10:35:37;;;;;;;5.15;1.70;;;;;;;-141.50;100.00;63355.56;4894257;29;20559;-85
2024/03/25 10:38:13;;;;;;;5.53;1.63;;;;;;;-141.50;100.00;63355.56;4919849;28;20067;-85
2024/03/25 10:40:39;;;;;;;6.25;1.83;;;;;;;-141.50;100.00;63355.56;4911832;29;20056;-85
2024/03/25 10:43:13;;;;;;;6.70;1.98;;;;;;;-141.50;100.00;63355.56;4898491;29;20039;-86
2024/03/25 10:45:44;;;;;;;12.05;2.10;;;;;;;-141.50;100.00;63355.56;4924800;28;20052;-83
2024/03/25 10:48:14;;;;;;;7.45;1.77;;;;;;;-141.50;100.00;63355.56;4916546;29;20075;-87
2024/03/25 10:50:43;;;;;;;4.72;1.77;;;;;;;-141.50;100.00;63355.56;4918991;29;20558;-84
2024/03/25 10:53:17;;;;;;;7.20;1.50;;;;;;;-141.50;100.00;63355.56;4920907;28;20048;-85
2024/03/25 10:55:47;;;;;;;5.93;1.63;;;;;;;-141.50;100.00;63355.56;4933624;29;20154;-86
2024/03/25 10:58:16;;;;;;;6.22;1.42;;;;;;;-141.50;100.00;63355.56;4903948;29;20134;-84
2024/03/25 11:00:53;;;;;;;5.57;1.55;;;;;;;-141.50;100.00;63355.56;4901428;29;20321;-86
2024/03/25 11:03:21;;;;;;;5.50;1.58;;;;;;;-141.50;100.00;63355.56;4902853;29;20429;-86
2024/03/25 11:05:47;;;;;;;5.35;1.45;;;;;;;-141.50;100.00;63355.56;4893628;29;20059;-84
2024/03/25 11:08:15;;;;;;;6.68;1.67;;;;;;;-141.50;100.00;63355.56;4920458;29;20051;-86
2024/03/25 11:10:43;;;;;;;5.00;1.77;;;;;;;-141.50;100.00;63355.56;4919195;29;20056;-85
2024/03/25 11:13:18;;;;;;;4.93;1.20;;;;;;;-141.50;100.00;63355.56;4924830;28;20404;-87
2024/03/25 11:15:48;;;;;;;5.80;1.38;;;;;;;-141.50;100.00;63355.56;4911449;29;20052;-88